Time;durP1;ratioP1;P1;durP2;ratioP2;P2;SDS_P1;SDS_P2;PMS_P1;PMS_P2;Temp;Humidity;BMP_temperature;BMP_pressure;BME280_temperature;BME280_humidity;BME280_pressure;Samples;Min_cycle;Max_cycle;Signal;HPM_P1;HPM_P2
2021/12/21 00:00:27;;;;;;;22.30;10.95;;;-1.50;99.90;;;;;;4999246;28;20947;-82
2021/12/21 00:02:53;;;;;;;21.90;11.07;;;-1.40;99.90;;;;;;5003918;28;20538;-81
2021/12/21 00:05:21;;;;;;;22.67;12.48;;;-1.40;99.90;;;;;;5004037;28;20048;-81
2021/12/21 00:07:51;;;;;;;19.15;11.55;;;-1.40;99.90;;;;;;4999467;28;20429;-81
2021/12/21 00:10:19;;;;;;;22.70;12.77;;;-1.30;99.90;;;;;;4997179;28;20054;-81
2021/12/21 00:13:01;;;;;;;17.33;11.48;;;-1.30;99.90;;;;;;5000063;28;20466;-82
2021/12/21 00:18:52;;;;;;;23.25;11.70;;;-1.40;99.90;;;;;;5004372;28;20051;-81
2021/12/21 00:23:36;;;;;;;71.07;9.93;;;-1.50;99.90;;;;;;5010862;28;20056;-81
2021/12/21 00:26:11;;;;;;;19.48;11.30;;;-1.70;99.90;;;;;;5007275;28;20051;-81
2021/12/21 00:31:25;;;;;;;19.30;12.20;;;-1.70;99.90;;;;;;5004329;28;20059;-81
2021/12/21 00:33:51;;;;;;;22.65;12.18;;;-1.60;99.90;;;;;;5004443;28;20051;-81
2021/12/21 00:36:20;;;;;;;25.92;12.60;;;-1.70;99.90;;;;;;4999857;28;20103;-81
2021/12/21 00:38:47;;;;;;;26.38;13.70;;;-1.60;99.90;;;;;;5004978;28;20051;-81
2021/12/21 00:41:14;;;;;;;23.77;13.40;;;-1.50;99.90;;;;;;4995171;28;20075;-81
2021/12/21 00:43:39;;;;;;;24.40;15.07;;;-1.60;99.90;;;;;;5002582;28;20043;-81
2021/12/21 00:46:05;;;;;;;27.42;13.52;;;-1.60;99.90;;;;;;4977710;28;20070;-81
2021/12/21 00:48:33;;;;;;;25.05;13.38;;;-1.60;99.90;;;;;;5018642;28;20393;-81
2021/12/21 00:51:02;;;;;;;33.20;14.98;;;-1.70;99.90;;;;;;4997951;28;20107;-81
2021/12/21 00:53:28;;;;;;;28.10;16.02;;;-1.60;99.90;;;;;;5008837;28;20471;-81
2021/12/21 00:55:54;;;;;;;29.38;16.35;;;-1.60;99.90;;;;;;5019430;28;20501;-81
2021/12/21 00:58:21;;;;;;;36.70;16.42;;;-1.70;99.90;;;;;;5024372;28;20735;-81
2021/12/21 01:00:47;;;;;;;26.80;15.70;;;-1.70;99.90;;;;;;5024001;28;20044;-81
2021/12/21 01:03:15;;;;;;;29.20;15.23;;;-1.70;99.90;;;;;;5003430;28;20175;-80
2021/12/21 01:08:12;;;;;;;26.98;15.23;;;-1.80;99.90;;;;;;4999859;28;20058;-80
2021/12/21 01:18:28;;;;;;;22.70;13.32;;;-1.80;99.90;;;;;;4995396;28;20972;-80
2021/12/21 01:21:09;;;;;;;26.05;14.82;;;-1.60;99.90;;;;;;5005013;28;20062;-80
2021/12/21 01:26:25;;;;;;;25.92;13.80;;;-1.60;99.90;;;;;;4999239;28;20052;-80
2021/12/21 01:29:22;;;;;;;26.83;13.90;;;-1.60;99.90;;;;;;5016791;28;20058;-80
2021/12/21 01:36:55;;;;;;;29.52;14.18;;;-1.70;99.90;;;;;;5003210;28;20055;-80
2021/12/21 01:42:14;;;;;;;25.42;13.23;;;-1.70;99.90;;;;;;4999482;28;20055;-80
2021/12/21 01:50:10;;;;;;;23.75;13.10;;;-1.60;99.90;;;;;;5022595;28;20108;-79
2021/12/21 01:52:36;;;;;;;23.42;13.25;;;-1.70;99.90;;;;;;5009261;28;20112;-80
2021/12/21 01:55:02;;;;;;;23.85;12.93;;;-1.60;99.90;;;;;;5002575;28;20365;-79
2021/12/21 01:57:28;;;;;;;23.83;13.10;;;-1.70;99.90;;;;;;4998068;28;20446;-80
2021/12/21 01:59:54;;;;;;;23.05;13.02;;;-1.60;99.90;;;;;;4955239;28;20590;-80
2021/12/21 02:02:22;;;;;;;22.17;13.25;;;-1.70;99.90;;;;;;5000980;28;20582;-80
2021/12/21 02:04:47;;;;;;;23.60;12.93;;;-1.70;99.90;;;;;;4997325;28;20476;-80
2021/12/21 02:07:14;;;;;;;20.75;12.25;;;-1.80;99.90;;;;;;5004656;28;20080;-80
2021/12/21 02:09:40;;;;;;;26.98;14.93;;;-1.80;99.90;;;;;;5000330;28;20661;-80
2021/12/21 02:12:15;;;;;;;22.35;13.50;;;-1.80;99.90;;;;;;5006687;28;20846;-79
2021/12/21 02:14:43;;;;;;;21.60;13.43;;;-1.90;99.90;;;;;;5005081;28;20140;-80
2021/12/21 02:17:38;;;;;;;20.83;12.90;;;-1.90;99.90;;;;;;5006659;28;20763;-80
2021/12/21 02:22:48;;;;;;;26.83;14.98;;;-2.10;99.90;;;;;;5015823;28;20188;-80
2021/12/21 02:30:43;;;;;;;24.92;13.35;;;-2.10;99.90;;;;;;4983925;28;20079;-80
2021/12/21 02:33:09;;;;;;;23.85;13.77;;;-2.00;99.90;;;;;;5000761;28;20486;-80
2021/12/21 02:35:36;;;;;;;26.88;13.10;;;-2.10;99.90;;;;;;5019583;28;20047;-79
2021/12/21 02:38:02;;;;;;;19.92;12.40;;;-2.10;99.90;;;;;;4997316;28;20063;-79
2021/12/21 02:40:27;;;;;;;22.38;13.88;;;-2.10;99.90;;;;;;5020439;28;20032;-79
2021/12/21 02:42:53;;;;;;;19.25;13.00;;;-2.20;99.90;;;;;;5029799;28;20082;-80
2021/12/21 02:45:19;;;;;;;19.23;12.48;;;-2.10;99.90;;;;;;5002193;28;20052;-79
2021/12/21 02:47:45;;;;;;;21.45;12.15;;;-2.10;99.90;;;;;;5023908;28;20450;-79
2021/12/21 02:50:11;;;;;;;20.52;12.77;;;-2.10;99.90;;;;;;5023572;28;20051;-79
2021/12/21 02:52:37;;;;;;;24.05;13.02;;;-2.10;99.90;;;;;;5008982;28;20047;-80
2021/12/21 02:55:04;;;;;;;22.98;12.95;;;-2.10;99.90;;;;;;5020503;28;20071;-80
2021/12/21 02:57:30;;;;;;;23.95;13.48;;;-2.10;99.90;;;;;;5008744;28;20440;-80
2021/12/21 02:59:56;;;;;;;19.83;12.95;;;-2.10;99.90;;;;;;5001638;28;20051;-80
2021/12/21 03:02:22;;;;;;;22.02;13.23;;;-2.10;99.90;;;;;;4982211;28;20039;-80
2021/12/21 03:04:50;;;;;;;23.63;13.73;;;-2.20;99.90;;;;;;5018998;28;20416;-80
2021/12/21 03:10:16;;;;;;;26.40;14.75;;;-2.20;99.90;;;;;;4953417;28;20150;-80
2021/12/21 03:15:29;;;;;;;23.08;14.52;;;-2.10;99.90;;;;;;4994860;28;20047;-80
2021/12/21 03:17:57;;;;;;;28.52;17.10;;;-2.20;99.90;;;;;;4999372;28;20211;-79
2021/12/21 03:20:24;;;;;;;28.70;16.63;;;-2.20;99.90;;;;;;5000512;28;20090;-80
2021/12/21 03:22:50;;;;;;;24.13;15.43;;;-2.20;99.90;;;;;;5002087;28;20300;-80
2021/12/21 03:25:17;;;;;;;27.10;15.82;;;-2.20;99.90;;;;;;5019824;28;20401;-80
2021/12/21 03:27:43;;;;;;;26.67;16.48;;;-2.20;99.90;;;;;;4998080;28;20067;-80
2021/12/21 03:30:13;;;;;;;26.63;16.27;;;-2.20;99.90;;;;;;5003330;28;20059;-80
2021/12/21 03:32:38;;;;;;;28.05;17.73;;;-2.30;99.90;;;;;;5012786;28;20545;-80
2021/12/21 03:35:05;;;;;;;29.20;17.40;;;-2.30;99.90;;;;;;4994184;28;20520;-80
2021/12/21 03:37:31;;;;;;;31.73;19.10;;;-2.20;99.90;;;;;;4995623;28;20097;-80
2021/12/21 03:40:00;;;;;;;32.05;19.92;;;-2.20;99.90;;;;;;5018231;28;20160;-80
2021/12/21 03:42:26;;;;;;;30.00;20.52;;;-2.30;99.90;;;;;;4982564;28;20054;-80
2021/12/21 03:44:52;;;;;;;28.67;18.15;;;-2.30;99.90;;;;;;5018905;28;20370;-80
2021/12/21 03:47:18;;;;;;;27.33;17.73;;;-2.40;99.90;;;;;;4998834;28;20524;-80
2021/12/21 03:52:13;;;;;;;28.27;18.27;;;-2.30;99.90;;;;;;5001591;28;20989;-80
2021/12/21 03:54:43;;;;;;;25.17;16.90;;;-2.40;99.90;;;;;;5013717;28;20039;-81
2021/12/21 03:57:09;;;;;;;26.27;16.05;;;-2.30;99.90;;;;;;5016354;28;20500;-81
2021/12/21 03:59:35;;;;;;;26.38;17.98;;;-2.40;99.90;;;;;;5020059;28;20046;-81
2021/12/21 04:02:02;;;;;;;29.90;18.77;;;-2.30;99.90;;;;;;5003203;28;20463;-81
2021/12/21 04:04:28;;;;;;;26.95;17.70;;;-2.30;99.90;;;;;;5001222;28;20124;-80
2021/12/21 04:06:54;;;;;;;27.70;18.23;;;-2.30;99.90;;;;;;4995272;28;20519;-81
2021/12/21 04:09:20;;;;;;;30.88;19.33;;;-2.40;99.90;;;;;;4996780;28;20039;-81
2021/12/21 04:11:46;;;;;;;32.83;18.58;;;-2.30;99.90;;;;;;5013617;28;20036;-80
2021/12/21 04:14:13;;;;;;;48.33;19.45;;;-2.40;99.90;;;;;;4994639;28;20051;-81
2021/12/21 04:16:39;;;;;;;27.92;17.60;;;-2.30;99.90;;;;;;4995976;28;20574;-81
2021/12/21 04:19:05;;;;;;;27.23;17.00;;;-2.30;99.90;;;;;;4997408;28;20044;-81
2021/12/21 04:21:31;;;;;;;29.73;16.58;;;-2.40;99.90;;;;;;4985510;28;20045;-81
2021/12/21 04:23:57;;;;;;;27.83;16.08;;;-2.30;99.90;;;;;;4983774;28;20036;-80
2021/12/21 04:26:23;;;;;;;28.08;17.52;;;-2.30;99.90;;;;;;4978391;28;20044;-81
2021/12/21 04:28:48;;;;;;;25.67;14.35;;;-2.40;99.90;;;;;;4994505;28;20044;-81
2021/12/21 04:31:15;;;;;;;23.52;13.77;;;-2.40;99.90;;;;;;4992875;28;20687;-81
2021/12/21 04:33:42;;;;;;;23.27;13.73;;;-2.30;99.90;;;;;;4996975;28;20548;-81
2021/12/21 04:36:10;;;;;;;23.17;15.25;;;-2.20;99.90;;;;;;5012408;28;20187;-81
2021/12/21 04:38:39;;;;;;;21.17;14.00;;;-2.30;99.90;;;;;;4999362;28;20045;-81
2021/12/21 04:41:14;;;;;;;24.65;15.40;;;-2.30;99.90;;;;;;5018281;28;20100;-81
2021/12/21 04:43:40;;;;;;;23.80;14.43;;;-2.40;99.90;;;;;;4995861;28;20127;-81
2021/12/21 04:46:07;;;;;;;23.38;13.63;;;-2.40;99.90;;;;;;5020717;28;20047;-81
2021/12/21 04:48:33;;;;;;;24.95;14.10;;;-2.40;99.90;;;;;;4999730;28;20052;-81
2021/12/21 04:50:59;;;;;;;21.58;13.40;;;-2.40;99.90;;;;;;5016047;28;20476;-81
2021/12/21 04:53:25;;;;;;;18.60;13.25;;;-2.50;99.90;;;;;;4997691;28;20063;-81
2021/12/21 04:55:52;;;;;;;18.00;13.30;;;-2.40;99.90;;;;;;4998677;28;20047;-80
2021/12/21 04:58:18;;;;;;;19.00;13.25;;;-2.50;99.90;;;;;;5015403;28;20100;-81
2021/12/21 05:00:44;;;;;;;24.15;14.90;;;-2.50;99.90;;;;;;4995389;28;20733;-81
2021/12/21 05:03:10;;;;;;;19.33;13.85;;;-2.50;99.90;;;;;;4997623;28;20052;-81
2021/12/21 05:05:36;;;;;;;21.00;13.43;;;-2.40;99.90;;;;;;5013189;28;20047;-81
2021/12/21 05:10:33;;;;;;;23.42;13.50;;;-2.50;99.90;;;;;;5015198;28;20052;-81
2021/12/21 05:12:59;;;;;;;19.63;13.30;;;-2.50;99.90;;;;;;4995293;28;20059;-81
2021/12/21 05:15:25;;;;;;;20.77;13.25;;;-2.50;99.90;;;;;;5013729;28;20299;-81
2021/12/21 05:17:51;;;;;;;20.05;13.00;;;-2.40;99.90;;;;;;4979796;28;20048;-81
2021/12/21 05:20:16;;;;;;;15.93;10.75;;;-2.40;99.90;;;;;;5000968;28;20797;-81
2021/12/21 05:22:42;;;;;;;19.70;12.30;;;-2.50;99.90;;;;;;5021275;28;20531;-81
2021/12/21 05:25:08;;;;;;;19.88;13.10;;;-2.50;99.90;;;;;;4998806;28;20047;-81
2021/12/21 05:27:34;;;;;;;18.95;11.98;;;-2.60;99.90;;;;;;5002712;28;20048;-81
2021/12/21 05:30:00;;;;;;;20.13;10.98;;;-2.50;99.90;;;;;;4968431;28;20083;-81
2021/12/21 05:32:26;;;;;;;20.45;11.77;;;-2.50;99.90;;;;;;5004628;28;20063;-81
2021/12/21 05:34:52;;;;;;;17.20;10.85;;;-2.50;99.90;;;;;;5006035;28;20127;-81
2021/12/21 05:37:17;;;;;;;18.95;11.77;;;-2.60;99.90;;;;;;5019962;28;20761;-81
2021/12/21 05:42:22;;;;;;;18.95;11.25;;;-2.50;99.90;;;;;;5016711;28;20332;-81
2021/12/21 05:44:49;;;;;;;21.13;12.02;;;-2.70;99.90;;;;;;5000220;28;20044;-81
2021/12/21 05:47:16;;;;;;;17.40;10.75;;;-2.70;99.90;;;;;;4997181;28;20052;-81
2021/12/21 05:49:43;;;;;;;15.63;10.10;;;-2.70;99.90;;;;;;4985327;28;20061;-81
2021/12/21 05:52:09;;;;;;;18.45;11.52;;;-2.60;99.90;;;;;;5041269;28;20055;-81
2021/12/21 05:54:35;;;;;;;20.60;11.40;;;-2.70;99.90;;;;;;4988935;28;20048;-81
2021/12/21 05:57:02;;;;;;;14.43;9.73;;;-2.70;99.90;;;;;;4988074;28;20430;-81
2021/12/21 05:59:28;;;;;;;18.17;10.20;;;-2.70;99.90;;;;;;4989916;28;20476;-81
2021/12/21 06:01:53;;;;;;;19.80;10.70;;;-2.70;99.90;;;;;;4986550;28;20464;-81
2021/12/21 06:04:21;;;;;;;21.25;12.70;;;-2.60;99.90;;;;;;4987195;28;20074;-81
2021/12/21 06:06:47;;;;;;;15.98;10.80;;;-2.60;99.90;;;;;;4987194;28;20383;-81
2021/12/21 06:09:14;;;;;;;15.23;10.27;;;-2.70;99.90;;;;;;4971598;28;20371;-81
2021/12/21 06:11:48;;;;;;;16.10;11.15;;;-2.80;99.90;;;;;;4984327;28;20076;-81
2021/12/21 06:27:21;;;;;;;21.50;11.45;;;-2.80;99.90;;;;;;4997561;28;20063;-81
2021/12/21 06:29:47;;;;;;;23.65;11.55;;;-2.70;99.90;;;;;;4986190;28;20486;-81
2021/12/21 06:32:13;;;;;;;21.70;11.95;;;-2.70;99.90;;;;;;5003640;28;20047;-81
2021/12/21 06:34:39;;;;;;;32.17;12.45;;;-2.80;99.90;;;;;;5000414;28;20344;-82
2021/12/21 06:37:06;;;;;;;20.35;12.18;;;-2.80;99.90;;;;;;5000435;28;20510;-81
2021/12/21 06:39:33;;;;;;;24.17;14.27;;;-2.70;99.90;;;;;;5001788;28;20049;-81
2021/12/21 06:42:00;;;;;;;20.45;12.77;;;-2.80;99.90;;;;;;4999667;28;20894;-81
2021/12/21 06:44:26;;;;;;;21.77;13.65;;;-2.90;99.90;;;;;;4982378;28;20143;-81
2021/12/21 06:51:09;;;;;;;27.42;13.52;;;-2.90;99.90;;;;;;4997587;28;20047;-81
2021/12/21 06:52:39;;;;;;;18.23;12.45;;;-2.90;99.90;;;;;;5001561;28;20844;-81
2021/12/21 06:55:06;;;;;;;35.45;13.25;;;-3.00;99.90;;;;;;5000610;28;20515;-81
2021/12/21 06:57:32;;;;;;;26.05;14.07;;;-3.00;99.90;;;;;;4998825;28;20412;-81
2021/12/21 06:59:58;;;;;;;24.63;13.90;;;-3.00;99.90;;;;;;5003367;28;20241;-81
2021/12/21 07:02:24;;;;;;;22.38;12.48;;;-2.90;99.90;;;;;;5000837;28;20207;-81
2021/12/21 07:04:51;;;;;;;26.95;13.88;;;-2.90;99.90;;;;;;5000133;28;20043;-81
2021/12/21 07:07:17;;;;;;;20.40;12.95;;;-2.90;99.90;;;;;;5006189;28;20040;-81
2021/12/21 07:09:46;;;;;;;28.45;14.25;;;-2.90;99.90;;;;;;5002478;28;21046;-82
2021/12/21 07:20:00;;;;;;;34.65;15.00;;;-2.90;99.90;;;;;;5000471;28;20047;-81
2021/12/21 07:22:26;;;;;;;50.25;14.45;;;-2.80;99.90;;;;;;4991014;28;20054;-82
2021/12/21 07:24:52;;;;;;;38.85;14.88;;;-2.90;99.90;;;;;;4981564;28;20043;-83
2021/12/21 07:27:18;;;;;;;29.27;15.48;;;-2.90;99.90;;;;;;4974613;28;20082;-82
2021/12/21 07:29:44;;;;;;;25.42;15.32;;;-2.90;99.90;;;;;;5017321;28;20043;-79
2021/12/21 07:32:10;;;;;;;82.78;16.67;;;-3.00;99.90;;;;;;5020178;28;20051;-78
2021/12/21 07:34:35;;;;;;;35.97;14.80;;;-3.00;99.90;;;;;;4995857;28;20043;-84
2021/12/21 07:37:02;;;;;;;24.67;14.57;;;-3.00;99.90;;;;;;4976600;28;20039;-80
2021/12/21 07:39:28;;;;;;;38.35;15.35;;;-3.00;99.90;;;;;;4997501;28;20144;-81
2021/12/21 07:41:54;;;;;;;29.35;15.48;;;-3.00;99.90;;;;;;4994538;28;20044;-81
2021/12/21 07:44:19;;;;;;;25.00;16.17;;;-3.10;99.90;;;;;;4998774;28;20537;-78
2021/12/21 07:46:45;;;;;;;37.50;16.42;;;-3.10;99.90;;;;;;5015348;28;20044;-79
2021/12/21 07:49:11;;;;;;;27.50;17.65;;;-3.00;99.90;;;;;;4997160;28;20443;-78
2021/12/21 07:51:37;;;;;;;41.08;17.80;;;-3.00;99.90;;;;;;4995707;28;20043;-77
2021/12/21 07:54:03;;;;;;;26.98;17.55;;;-2.90;99.90;;;;;;5020515;28;20031;-77
2021/12/21 07:56:30;;;;;;;27.42;16.40;;;-2.90;99.90;;;;;;5014468;28;20050;-81
2021/12/21 07:58:56;;;;;;;31.50;15.05;;;-2.90;99.90;;;;;;4968003;28;20070;-78
2021/12/21 08:01:24;;;;;;;28.55;15.23;;;-2.90;99.90;;;;;;4980184;28;21032;-80
2021/12/21 08:03:50;;;;;;;24.45;15.90;;;-2.90;99.90;;;;;;5001142;28;20043;-81
2021/12/21 08:06:16;;;;;;;34.17;17.15;;;-2.80;99.90;;;;;;4986231;28;20143;-81
2021/12/21 08:08:44;;;;;;;35.55;17.23;;;-2.70;99.90;;;;;;5007527;28;20453;-81
2021/12/21 08:11:17;;;;;;;29.73;15.98;;;-2.60;99.90;;;;;;5003792;28;20053;-79
2021/12/21 08:13:46;;;;;;;29.25;15.77;;;-2.60;99.90;;;;;;5001519;28;20047;-80
2021/12/21 08:16:12;;;;;;;31.58;16.60;;;-2.50;99.90;;;;;;5003399;28;20728;-81
2021/12/21 08:18:39;;;;;;;35.65;16.60;;;-2.40;99.90;;;;;;5008650;28;20055;-80
2021/12/21 08:21:04;;;;;;;47.78;15.98;;;-2.40;99.90;;;;;;4984768;28;20416;-78
2021/12/21 08:23:30;;;;;;;39.95;16.13;;;-2.40;99.90;;;;;;5004249;28;20817;-79
2021/12/21 08:25:57;;;;;;;36.13;15.68;;;-2.30;99.90;;;;;;5028193;28;20051;-78
2021/12/21 08:28:23;;;;;;;31.42;15.23;;;-2.20;99.90;;;;;;4991408;28;20459;-80
2021/12/21 08:30:50;;;;;;;31.40;15.68;;;-2.20;99.90;;;;;;4995176;28;21074;-80
2021/12/21 08:33:16;;;;;;;38.55;15.13;;;-2.10;99.90;;;;;;4985219;28;20075;-82
2021/12/21 08:35:44;;;;;;;36.60;14.57;;;-2.00;99.90;;;;;;4983669;28;20961;-82
2021/12/21 08:38:14;;;;;;;32.20;14.73;;;-1.90;99.90;;;;;;4987388;28;21027;-81
2021/12/21 08:40:42;;;;;;;29.63;13.98;;;-1.80;99.90;;;;;;5005538;28;20051;-80
2021/12/21 08:43:12;;;;;;;34.33;14.85;;;-1.70;99.90;;;;;;4983431;28;20185;-80
2021/12/21 08:45:40;;;;;;;36.38;13.77;;;-1.70;99.90;;;;;;4993665;28;20054;-80
2021/12/21 08:48:07;;;;;;;31.08;13.93;;;-1.50;99.90;;;;;;4979535;28;20052;-80
2021/12/21 08:50:34;;;;;;;36.63;14.95;;;-1.40;99.90;;;;;;4980592;28;20524;-83
2021/12/21 08:53:00;;;;;;;30.88;14.23;;;-1.40;99.90;;;;;;4977321;28;20464;-82
2021/12/21 08:55:26;;;;;;;33.05;14.20;;;-1.40;99.90;;;;;;4976116;28;20109;-81
2021/12/21 08:57:52;;;;;;;72.10;14.93;;;-1.30;99.90;;;;;;4959366;28;20340;-78
2021/12/21 09:00:19;;;;;;;39.50;14.20;;;-1.10;99.90;;;;;;4977783;28;20043;-80
2021/12/21 09:02:45;;;;;;;40.40;13.60;;;-1.00;99.90;;;;;;4977294;28;20453;-81
2021/12/21 09:05:15;;;;;;;28.10;13.60;;;-1.00;99.90;;;;;;4973578;28;20604;-81
2021/12/21 09:07:46;;;;;;;28.70;14.00;;;-1.00;99.90;;;;;;4976441;28;20047;-81
2021/12/21 09:10:13;;;;;;;24.48;14.05;;;-1.00;99.90;;;;;;4968805;28;20054;-81
2021/12/21 09:12:40;;;;;;;25.70;16.73;;;-0.90;99.90;;;;;;4978392;28;20413;-83
2021/12/21 09:15:08;;;;;;;30.88;18.73;;;-0.90;99.90;;;;;;4962855;28;20055;-78
2021/12/21 09:17:35;;;;;;;37.70;18.58;;;-0.80;99.90;;;;;;5000070;28;20479;-79
2021/12/21 09:20:01;;;;;;;35.90;19.17;;;-0.60;99.90;;;;;;4971370;28;20056;-82
2021/12/21 09:22:27;;;;;;;37.22;19.60;;;-0.40;99.90;;;;;;4981446;28;20101;-81
2021/12/21 09:24:53;;;;;;;32.85;18.02;;;-0.30;99.90;;;;;;4992021;28;20072;-82
2021/12/21 09:27:19;;;;;;;29.48;17.92;;;-0.40;99.90;;;;;;4963967;28;20417;-81
2021/12/21 09:29:46;;;;;;;33.42;17.98;;;-0.10;99.90;;;;;;5010877;28;21095;-82
2021/12/21 09:32:13;;;;;;;34.88;18.38;;;-0.20;99.90;;;;;;4994895;28;20107;-81
2021/12/21 09:34:40;;;;;;;27.25;17.55;;;-0.10;99.90;;;;;;4995060;28;20220;-81
2021/12/21 09:37:10;;;;;;;23.27;15.48;;;0.00;99.90;;;;;;5013823;28;20039;-81
2021/12/21 09:39:35;;;;;;;25.00;16.27;;;-0.20;99.90;;;;;;4998273;28;20531;-83
2021/12/21 09:42:01;;;;;;;31.30;16.23;;;-0.10;99.90;;;;;;4977291;28;20047;-83
2021/12/21 09:44:29;;;;;;;28.25;16.33;;;0.00;99.90;;;;;;5003506;28;20051;-82
2021/12/21 09:46:55;;;;;;;27.83;17.27;;;0.10;99.90;;;;;;4999992;28;20132;-81
2021/12/21 09:49:23;;;;;;;31.50;17.90;;;0.30;99.90;;;;;;5011987;28;20539;-83
2021/12/21 09:51:48;;;;;;;27.17;18.83;;;0.40;99.90;;;;;;4974875;28;20062;-83
2021/12/21 09:54:18;;;;;;;28.00;19.02;;;0.60;99.90;;;;;;4997115;28;20562;-83
2021/12/21 09:56:44;;;;;;;27.17;18.80;;;0.70;99.90;;;;;;4999274;28;20054;-84
2021/12/21 09:59:11;;;;;;;29.00;18.67;;;0.80;99.90;;;;;;4975632;28;20071;-88
2021/12/21 10:01:36;;;;;;;29.33;18.15;;;0.90;99.90;;;;;;4982715;28;20277;-80
2021/12/21 10:04:03;;;;;;;32.92;18.63;;;0.90;99.90;;;;;;5008639;28;20590;-83
2021/12/21 10:06:28;;;;;;;31.55;18.45;;;0.90;99.90;;;;;;4974837;28;20043;-82
2021/12/21 10:09:06;;;;;;;41.80;17.25;;;1.00;99.90;;;;;;4989295;28;20054;-82
2021/12/21 10:11:44;;;;;;;33.90;18.27;;;1.10;99.90;;;;;;5001814;28;20039;-82
2021/12/21 10:14:10;;;;;;;36.50;18.10;;;1.10;99.90;;;;;;4995342;28;20142;-82
2021/12/21 10:16:36;;;;;;;30.65;18.30;;;1.10;99.90;;;;;;4968726;28;20185;-82
2021/12/21 10:19:05;;;;;;;28.10;18.83;;;1.20;99.90;;;;;;4986955;28;20479;-81
2021/12/21 10:21:31;;;;;;;31.25;20.05;;;1.20;99.90;;;;;;4994085;28;20062;-82
2021/12/21 10:23:57;;;;;;;31.45;20.13;;;1.20;99.90;;;;;;5006534;28;20483;-84
2021/12/21 10:26:28;;;;;;;31.75;21.52;;;1.30;99.90;;;;;;5002644;28;20274;-82
2021/12/21 10:29:05;;;;;;;35.40;21.63;;;1.40;99.90;;;;;;5006849;28;20066;-81
2021/12/21 10:31:39;;;;;;;32.22;20.85;;;1.30;99.90;;;;;;5007667;28;20895;-83
2021/12/21 10:34:11;;;;;;;31.55;21.40;;;1.30;99.90;;;;;;4976517;28;20850;-84
2021/12/21 10:36:45;;;;;;;27.67;21.90;;;1.40;99.90;;;;;;5025820;28;20055;-80
2021/12/21 10:39:23;;;;;;;31.63;21.30;;;1.40;99.90;;;;;;5024705;28;20051;-82
2021/12/21 10:41:51;;;;;;;29.90;21.88;;;1.60;99.90;;;;;;5028933;28;20903;-82
2021/12/21 10:44:20;;;;;;;33.97;22.77;;;1.50;99.90;;;;;;5005101;28;20552;-83
2021/12/21 10:46:52;;;;;;;30.33;22.17;;;1.60;99.90;;;;;;5010252;28;20253;-82
2021/12/21 10:49:21;;;;;;;30.80;22.52;;;1.70;99.90;;;;;;5013701;28;21342;-83
2021/12/21 10:52:09;;;;;;;32.63;22.20;;;1.70;99.90;;;;;;5004802;28;20158;-83
2021/12/21 10:54:44;;;;;;;32.70;22.50;;;1.70;99.90;;;;;;5007131;28;20588;-83
2021/12/21 10:57:37;;;;;;;35.60;22.85;;;1.70;99.90;;;;;;5005970;28;20043;-83
2021/12/21 11:00:13;;;;;;;36.65;22.50;;;1.80;99.90;;;;;;4985616;28;20051;-82
2021/12/21 11:02:40;;;;;;;32.08;22.30;;;1.80;99.90;;;;;;5009556;28;20820;-83
2021/12/21 11:05:12;;;;;;;33.15;23.17;;;1.80;99.90;;;;;;5011492;28;20047;-82
2021/12/21 11:10:29;;;;;;;33.28;23.30;;;2.00;99.90;;;;;;5008259;28;20052;-83
2021/12/21 11:12:56;;;;;;;31.98;24.30;;;2.10;99.90;;;;;;5013659;28;20907;-85
2021/12/21 11:15:28;;;;;;;35.25;25.65;;;2.10;99.90;;;;;;5013427;28;20067;-83
2021/12/21 11:18:16;;;;;;;31.67;25.80;;;2.20;99.90;;;;;;5024976;28;20050;-84
2021/12/21 11:20:45;;;;;;;33.63;24.92;;;2.40;99.90;;;;;;5017098;28;20853;-83
2021/12/21 11:23:15;;;;;;;32.58;25.55;;;2.40;99.90;;;;;;5009800;28;20436;-84
2021/12/21 11:25:43;;;;;;;33.97;25.13;;;2.60;99.90;;;;;;5024465;28;20144;-83
2021/12/21 11:28:16;;;;;;;29.05;24.85;;;2.50;99.90;;;;;;4993437;28;20156;-82
2021/12/21 11:30:42;;;;;;;35.83;25.20;;;2.60;99.90;;;;;;5010305;28;20527;-84
2021/12/21 11:33:10;;;;;;;30.52;24.73;;;2.70;99.90;;;;;;5009661;28;20043;-83
2021/12/21 11:38:12;;;;;;;33.13;25.05;;;2.90;99.90;;;;;;5002914;28;20532;-87
2021/12/21 11:40:41;;;;;;;28.95;22.70;;;2.90;99.90;;;;;;4991264;28;20097;-84
2021/12/21 11:43:21;;;;;;;31.92;24.08;;;2.80;99.90;;;;;;5009530;28;20043;-84
2021/12/21 11:45:50;;;;;;;26.30;20.58;;;3.10;99.90;;;;;;5011739;28;20793;-84
2021/12/21 11:48:26;;;;;;;28.25;19.45;;;3.10;99.90;;;;;;5009960;28;20109;-85
2021/12/21 11:50:59;;;;;;;30.23;21.98;;;3.20;99.90;;;;;;5015665;28;20534;-84
2021/12/21 11:53:27;;;;;;;27.52;20.52;;;3.30;99.90;;;;;;4995873;28;20051;-82
2021/12/21 11:55:54;;;;;;;29.38;22.08;;;3.30;99.90;;;;;;5013145;28;20088;-81
2021/12/21 11:58:21;;;;;;;35.30;25.30;;;3.40;99.90;;;;;;5013954;28;20108;-83
2021/12/21 12:00:58;;;;;;;34.65;25.05;;;3.80;99.90;;;;;;5031564;28;20907;-82
2021/12/21 12:03:27;;;;;;;31.83;24.75;;;3.90;99.90;;;;;;5012088;28;20558;-83
2021/12/21 12:06:05;;;;;;;30.73;24.73;;;3.90;99.90;;;;;;5002828;28;20052;-83
2021/12/21 12:08:55;;;;;;;31.30;23.60;;;4.00;99.90;;;;;;5033122;28;20044;-81
2021/12/21 12:11:35;;;;;;;31.52;22.08;;;4.10;99.90;;;;;;5016490;28;20699;-82
2021/12/21 12:14:09;;;;;;;31.50;21.58;;;4.20;99.90;;;;;;4987359;28;20059;-83
2021/12/21 12:16:41;;;;;;;30.23;22.15;;;4.20;99.90;;;;;;4992620;28;20075;-83
2021/12/21 12:19:16;;;;;;;28.55;20.92;;;4.30;99.90;;;;;;5002979;28;20051;-83
2021/12/21 12:22:00;;;;;;;29.27;20.27;;;4.40;99.90;;;;;;5000319;28;20059;-84
2021/12/21 12:24:36;;;;;;;29.40;19.55;;;4.40;99.90;;;;;;5012267;28;20057;-83
2021/12/21 12:27:17;;;;;;;23.85;17.58;;;4.50;99.90;;;;;;5005497;28;20083;-82
2021/12/21 12:29:51;;;;;;;23.67;17.40;;;4.50;99.90;;;;;;5016043;28;20056;-82
2021/12/21 12:32:30;;;;;;;20.73;16.88;;;4.60;99.90;;;;;;5018580;28;21125;-83
2021/12/21 12:35:15;;;;;;;25.52;15.77;;;4.70;99.90;;;;;;5037897;28;20044;-83
2021/12/21 12:38:12;;;;;;;23.73;15.73;;;4.80;99.90;;;;;;5011852;28;20054;-81
2021/12/21 12:40:42;;;;;;;22.65;15.88;;;4.70;99.90;;;;;;4971417;28;20516;-83
2021/12/21 12:43:12;;;;;;;22.20;16.17;;;4.70;99.90;;;;;;4998495;28;20164;-82
2021/12/21 12:45:45;;;;;;;22.02;16.30;;;4.60;99.90;;;;;;5033066;28;20568;-81
2021/12/21 12:48:38;;;;;;;22.90;16.05;;;4.50;99.90;;;;;;5030809;28;20162;-81
2021/12/21 12:51:07;;;;;;;21.42;13.70;;;4.70;99.90;;;;;;4999471;28;20341;-81
2021/12/21 12:53:44;;;;;;;22.48;14.57;;;4.70;99.90;;;;;;5030855;28;20054;-81
2021/12/21 12:56:14;;;;;;;25.63;14.52;;;4.80;99.90;;;;;;5008522;28;20100;-81
2021/12/21 12:59:02;;;;;;;16.77;11.70;;;4.80;99.90;;;;;;5016615;28;20236;-81
2021/12/21 13:01:44;;;;;;;20.05;13.35;;;4.80;99.90;;;;;;5016493;28;20067;-81
2021/12/21 13:04:12;;;;;;;23.30;14.32;;;4.90;99.90;;;;;;5011881;28;20085;-84
2021/12/21 13:06:40;;;;;;;22.20;14.35;;;4.90;99.90;;;;;;5011743;28;20090;-84
2021/12/21 13:09:10;;;;;;;22.80;14.07;;;5.00;99.90;;;;;;4993107;28;20542;-83
2021/12/21 13:11:40;;;;;;;21.80;15.57;;;4.90;99.90;;;;;;5017408;28;20497;-83
2021/12/21 13:14:08;;;;;;;22.80;15.57;;;5.00;99.90;;;;;;5013437;28;20403;-83
2021/12/21 13:16:35;;;;;;;23.20;15.38;;;5.00;99.90;;;;;;5008620;28;20615;-82
2021/12/21 13:19:08;;;;;;;20.98;15.40;;;4.90;99.90;;;;;;4994767;28;20055;-83
2021/12/21 13:21:44;;;;;;;22.27;17.10;;;5.00;99.90;;;;;;5012164;28;20048;-84
2021/12/21 13:24:15;;;;;;;24.00;16.17;;;5.00;99.90;;;;;;5008228;28;20048;-83
2021/12/21 13:26:48;;;;;;;20.92;14.05;;;4.90;99.90;;;;;;5005293;28;20048;-82
2021/12/21 13:29:18;;;;;;;19.83;13.80;;;4.80;99.90;;;;;;5008866;28;20619;-83
2021/12/21 13:31:47;;;;;;;22.63;14.05;;;4.60;99.90;;;;;;5008886;28;20059;-83
2021/12/21 13:34:14;;;;;;;21.02;14.93;;;4.60;99.90;;;;;;4995897;28;20048;-82
2021/12/21 13:36:45;;;;;;;25.35;16.48;;;4.70;99.90;;;;;;5032758;28;20100;-84
2021/12/21 13:39:21;;;;;;;21.38;16.67;;;4.80;99.90;;;;;;4996288;28;20503;-83
2021/12/21 13:41:51;;;;;;;29.08;16.63;;;4.90;99.90;;;;;;5030723;28;20902;-83
2021/12/21 13:44:23;;;;;;;35.55;16.88;;;4.90;99.90;;;;;;5015581;28;20100;-83
2021/12/21 13:46:49;;;;;;;23.73;15.55;;;4.80;99.90;;;;;;5009120;28;20051;-82
2021/12/21 13:49:15;;;;;;;31.17;16.52;;;4.80;99.90;;;;;;5011680;28;20502;-82
2021/12/21 13:51:52;;;;;;;29.17;15.70;;;4.80;99.90;;;;;;4998612;28;20412;-83
2021/12/21 13:54:19;;;;;;;28.27;15.38;;;4.70;99.90;;;;;;5015100;28;20045;-83
2021/12/21 13:56:46;;;;;;;27.92;16.77;;;4.70;99.90;;;;;;5016181;28;20054;-82
2021/12/21 13:59:13;;;;;;;28.98;16.27;;;4.60;99.90;;;;;;5027187;28;20401;-81
2021/12/21 14:01:39;;;;;;;29.17;15.18;;;4.70;99.90;;;;;;5017428;28;20051;-83
2021/12/21 14:04:10;;;;;;;28.65;16.33;;;4.70;99.90;;;;;;5010731;28;20156;-81